createdAt,value
2023-04-04T00:00:01.463Z,0.87
2023-04-04T00:01:05.815Z,0.88
2023-04-04T00:02:09.802Z,0.87
2023-04-04T00:03:14.105Z,0.87
2023-04-04T00:04:18.186Z,0.88
2023-04-04T00:05:22.331Z,0.88
2023-04-04T00:06:26.385Z,0.87
2023-04-04T00:07:30.636Z,0.85
2023-04-04T00:08:34.736Z,0.84
2023-04-04T00:09:38.920Z,0.82
2023-04-04T00:10:43.381Z,0.82
2023-04-04T00:11:47.247Z,0.83
2023-04-04T00:12:51.487Z,0.84
2023-04-04T00:13:55.817Z,0.86
2023-04-04T00:14:59.840Z,0.89
2023-04-04T00:16:04.105Z,0.93
2023-04-04T00:17:08.178Z,0.97
2023-04-04T00:18:12.442Z,1.01
2023-04-04T00:19:16.572Z,1.05
2023-04-04T00:20:20.819Z,1.10
2023-04-04T00:21:24.910Z,1.14
2023-04-04T00:22:29.099Z,1.19
2023-04-04T00:23:33.252Z,1.23
2023-04-04T00:24:37.462Z,1.27
2023-04-04T00:25:41.697Z,1.32
2023-04-04T00:26:45.917Z,1.35
2023-04-04T00:27:50.063Z,1.38
2023-04-04T00:28:54.266Z,1.38
2023-04-04T00:29:58.429Z,1.35
2023-04-04T00:31:02.541Z,1.31
2023-04-04T00:32:06.859Z,1.28
2023-04-04T00:33:10.923Z,1.24
2023-04-04T00:34:14.958Z,1.22
2023-04-04T00:35:19.161Z,1.21
2023-04-04T00:36:23.314Z,1.19
2023-04-04T00:37:27.500Z,1.17
2023-04-04T00:38:31.644Z,1.15
2023-04-04T00:39:35.766Z,1.14
2023-04-04T00:40:40.224Z,1.13
2023-04-04T00:41:44.214Z,1.13
2023-04-04T00:42:48.360Z,1.13
2023-04-04T00:43:52.414Z,1.13
2023-04-04T00:44:56.644Z,1.12
2023-04-04T00:46:00.885Z,1.11
2023-04-04T00:47:05.047Z,1.10
2023-04-04T00:48:09.181Z,1.09
2023-04-04T00:49:13.391Z,1.08
2023-04-04T00:50:17.472Z,1.08
2023-04-04T00:51:21.816Z,1.09
2023-04-04T00:52:25.831Z,1.10
2023-04-04T00:53:29.868Z,1.13
2023-04-04T00:54:34.050Z,1.14
2023-04-04T00:55:38.289Z,1.14
2023-04-04T00:56:42.472Z,1.10
2023-04-04T00:57:46.601Z,1.04
2023-04-04T00:58:50.902Z,0.97
2023-04-04T00:59:55.028Z,0.91
2023-04-04T01:00:59.114Z,0.85
2023-04-04T01:02:03.329Z,0.79
2023-04-04T01:03:07.666Z,0.74
2023-04-04T01:04:11.504Z,0.70
2023-04-04T01:05:15.703Z,0.66
2023-04-04T01:06:19.971Z,0.64
2023-04-04T01:07:24.211Z,0.63
2023-04-04T01:08:28.194Z,0.62
2023-04-04T01:09:32.405Z,0.62
2023-04-04T01:10:36.497Z,0.64
2023-04-04T01:11:40.643Z,0.66
2023-04-04T01:12:44.790Z,0.69
2023-04-04T01:13:48.951Z,0.72
2023-04-04T01:14:53.126Z,0.75
2023-04-04T01:15:57.290Z,0.76
2023-04-04T01:17:01.546Z,0.77
2023-04-04T01:18:05.787Z,0.78
2023-04-04T01:19:09.974Z,0.79
2023-04-04T01:20:14.224Z,0.81
2023-04-04T01:21:18.383Z,0.83
2023-04-04T01:22:22.607Z,0.84
2023-04-04T01:23:26.650Z,0.85
2023-04-04T01:24:30.862Z,0.85
2023-04-04T01:25:35.102Z,0.85
2023-04-04T01:26:39.305Z,0.85
2023-04-04T01:27:43.394Z,0.84
2023-04-04T01:28:50.478Z,0.82
2023-04-04T01:29:53.754Z,0.78
2023-04-04T01:30:57.829Z,0.77
2023-04-04T01:32:02.103Z,0.79
2023-04-04T01:33:06.322Z,0.82
2023-04-04T01:34:10.606Z,0.85
2023-04-04T01:35:14.802Z,0.88
2023-04-04T01:36:18.914Z,0.91
2023-04-04T01:37:23.975Z,0.93
2023-04-04T01:38:27.683Z,0.93
2023-04-04T01:39:32.004Z,0.92
2023-04-04T01:40:36.141Z,0.93
2023-04-04T01:41:40.174Z,0.92
2023-04-04T01:42:44.351Z,0.91
2023-04-04T01:43:48.604Z,0.89
2023-04-04T01:44:52.792Z,0.87
2023-04-04T01:45:57.045Z,0.84
2023-04-04T01:47:01.050Z,0.81
2023-04-04T01:48:05.474Z,0.80
2023-04-04T01:49:11.137Z,0.80
2023-04-04T01:50:13.765Z,0.79
2023-04-04T01:51:17.934Z,0.80
2023-04-04T01:52:22.048Z,0.80
2023-04-04T01:53:26.343Z,0.83
2023-04-04T01:54:30.389Z,0.86
2023-04-04T01:55:34.704Z,0.86
2023-04-04T01:56:38.706Z,0.85
2023-04-04T01:57:42.914Z,0.83
2023-04-04T01:58:47.249Z,0.82
2023-04-04T01:59:51.354Z,0.81
2023-04-04T02:00:55.510Z,0.78
2023-04-04T02:01:59.570Z,0.76
2023-04-04T02:03:03.891Z,0.73
2023-04-04T02:04:07.951Z,0.71
2023-04-04T02:05:12.066Z,0.71
2023-04-04T02:06:16.269Z,0.72
2023-04-04T02:07:20.270Z,0.71
2023-04-04T02:08:24.528Z,0.71
2023-04-04T02:09:28.747Z,0.71
2023-04-04T02:10:32.835Z,0.72
2023-04-04T02:11:37.052Z,0.75
2023-04-04T02:12:41.261Z,0.76
2023-04-04T02:13:45.410Z,0.78
2023-04-04T02:14:49.449Z,0.79
2023-04-04T02:15:53.875Z,0.79
2023-04-04T02:16:57.934Z,0.77
2023-04-04T02:18:02.338Z,0.75
2023-04-04T02:19:06.430Z,0.71
2023-04-04T02:20:10.707Z,0.69
2023-04-04T02:21:14.734Z,0.69
2023-04-04T02:22:18.938Z,0.68
2023-04-04T02:23:23.117Z,0.67
2023-04-04T02:24:27.183Z,0.66
2023-04-04T02:25:31.402Z,0.68
2023-04-04T02:26:35.547Z,0.70
2023-04-04T02:27:39.661Z,0.70
2023-04-04T02:28:44.103Z,0.69
2023-04-04T02:29:48.176Z,0.68
2023-04-04T02:30:52.334Z,0.68
2023-04-04T02:31:56.385Z,0.66
2023-04-04T02:33:01.620Z,0.65
2023-04-04T02:34:05.227Z,0.65
2023-04-04T02:35:09.430Z,0.65
2023-04-04T02:36:13.675Z,0.66
2023-04-04T02:37:17.851Z,0.65
2023-04-04T02:38:22.108Z,0.65
2023-04-04T02:39:26.274Z,0.64
2023-04-04T02:40:30.425Z,0.63
2023-04-04T02:41:34.665Z,0.62
2023-04-04T02:42:38.743Z,0.60
2023-04-04T02:43:42.926Z,0.59
2023-04-04T02:44:47.054Z,0.60
2023-04-04T02:45:51.230Z,0.61
2023-04-04T02:46:55.420Z,0.62
2023-04-04T02:47:59.647Z,0.62
2023-04-04T02:49:03.774Z,0.62
2023-04-04T02:50:07.945Z,0.61
2023-04-04T02:51:12.190Z,0.60
2023-04-04T02:52:16.321Z,0.58
2023-04-04T02:53:20.425Z,0.56
2023-04-04T02:54:24.637Z,0.54
2023-04-04T02:55:28.759Z,0.53
2023-04-04T02:56:32.948Z,0.51
2023-04-04T02:57:37.971Z,0.51
2023-04-04T02:58:42.772Z,0.51
2023-04-04T02:59:45.825Z,0.52
2023-04-04T03:00:49.881Z,0.52
2023-04-04T03:01:54.215Z,0.50
2023-04-04T03:02:58.573Z,0.46
2023-04-04T03:04:02.503Z,0.41
2023-04-04T03:05:06.596Z,0.35
2023-04-04T03:06:10.790Z,0.28
2023-04-04T03:07:14.986Z,0.21
2023-04-04T03:08:19.255Z,0.15
2023-04-04T03:09:23.358Z,0.10
2023-04-04T03:10:27.636Z,0.06
2023-04-04T03:11:31.747Z,0.01
2023-04-04T03:12:35.996Z,-0.03
2023-04-04T03:13:40.104Z,-0.08
2023-04-04T03:14:44.212Z,-0.13
2023-04-04T03:15:48.409Z,-0.18
2023-04-04T03:16:52.638Z,-0.21
2023-04-04T03:17:56.540Z,-0.24
2023-04-04T03:19:00.812Z,-0.27
2023-04-04T03:20:04.895Z,-0.28
2023-04-04T03:21:09.107Z,-0.30
2023-04-04T03:22:13.238Z,-0.29
2023-04-04T03:23:17.452Z,-0.28
2023-04-04T03:24:21.754Z,-0.25
2023-04-04T03:25:25.874Z,-0.22
2023-04-04T03:26:29.897Z,-0.18
2023-04-04T03:27:33.976Z,-0.15
2023-04-04T03:28:38.134Z,-0.13
2023-04-04T03:29:42.479Z,-0.13
2023-04-04T03:30:46.599Z,-0.15
2023-04-04T03:31:50.712Z,-0.19
2023-04-04T03:32:54.876Z,-0.24
2023-04-04T03:33:59.046Z,-0.27
2023-04-04T03:35:03.240Z,-0.31
2023-04-04T03:36:07.384Z,-0.33
2023-04-04T03:37:11.539Z,-0.35
2023-04-04T03:38:15.715Z,-0.37
2023-04-04T03:39:19.862Z,-0.38
2023-04-04T03:40:23.838Z,-0.39
2023-04-04T03:41:28.181Z,-0.40
2023-04-04T03:42:32.226Z,-0.38
2023-04-04T03:43:36.311Z,-0.35
2023-04-04T03:44:40.385Z,-0.32
2023-04-04T03:45:44.635Z,-0.28
2023-04-04T03:46:48.948Z,-0.23
2023-04-04T03:47:53.009Z,-0.19
2023-04-04T03:48:57.137Z,-0.14
2023-04-04T03:50:01.316Z,-0.10
2023-04-04T03:51:05.393Z,-0.06
2023-04-04T03:52:09.636Z,-0.02
2023-04-04T03:53:13.777Z,0.02
2023-04-04T03:54:17.929Z,0.05
2023-04-04T03:55:22.185Z,0.08
2023-04-04T03:56:26.262Z,0.11
2023-04-04T03:57:30.477Z,0.13
2023-04-04T03:58:34.655Z,0.16
2023-04-04T03:59:38.761Z,0.20
2023-04-04T04:00:42.890Z,0.23
2023-04-04T04:01:47.094Z,0.24
2023-04-04T04:02:51.352Z,0.23
2023-04-04T04:03:55.431Z,0.24
2023-04-04T04:04:59.622Z,0.26
2023-04-04T04:06:03.716Z,0.27
2023-04-04T04:07:07.915Z,0.30
2023-04-04T04:08:11.949Z,0.32
2023-04-04T04:09:16.106Z,0.34
2023-04-04T04:10:20.248Z,0.38
2023-04-04T04:11:24.389Z,0.41
2023-04-04T04:12:28.548Z,0.42
2023-04-04T04:13:32.713Z,0.43
2023-04-04T04:14:36.894Z,0.43
2023-04-04T04:15:41.028Z,0.43
2023-04-04T04:16:45.230Z,0.43
2023-04-04T04:17:49.497Z,0.45
2023-04-04T04:18:53.480Z,0.46
2023-04-04T04:19:57.760Z,0.46
2023-04-04T04:21:01.900Z,0.45
2023-04-04T04:22:06.082Z,0.44
2023-04-04T04:23:10.221Z,0.43
2023-04-04T04:24:14.284Z,0.43
2023-04-04T04:25:18.449Z,0.42
2023-04-04T04:26:22.683Z,0.40
2023-04-04T04:27:26.745Z,0.39
2023-04-04T04:28:33.669Z,0.37
2023-04-04T04:29:35.036Z,0.34
2023-04-04T04:30:39.359Z,0.32
2023-04-04T04:31:43.358Z,0.29
2023-04-04T04:32:47.518Z,0.26
2023-04-04T04:33:51.543Z,0.25
2023-04-04T04:34:55.703Z,0.25
2023-04-04T04:36:01.661Z,0.26
2023-04-04T04:37:04.083Z,0.27
2023-04-04T04:38:11.230Z,0.29
2023-04-04T04:39:14.355Z,0.30
2023-04-04T04:40:18.548Z,0.31
2023-04-04T04:41:22.711Z,0.33
2023-04-04T04:42:26.890Z,0.35
2023-04-04T04:43:30.962Z,0.37
2023-04-04T04:44:35.190Z,0.40
2023-04-04T04:45:39.292Z,0.44
2023-04-04T04:46:43.632Z,0.47
2023-04-04T04:47:47.526Z,0.50
2023-04-04T04:48:51.873Z,0.52
2023-04-04T04:49:55.879Z,0.51
2023-04-04T04:51:00.038Z,0.50
2023-04-04T04:52:04.127Z,0.49
2023-04-04T04:53:08.268Z,0.50
2023-04-04T04:54:12.447Z,0.50
2023-04-04T04:55:16.620Z,0.46
2023-04-04T04:56:20.747Z,0.42
2023-04-04T04:57:24.868Z,0.38
2023-04-04T04:58:28.941Z,0.35
2023-04-04T04:59:33.074Z,0.35
2023-04-04T05:00:37.574Z,0.37
2023-04-04T05:01:41.399Z,0.40
2023-04-04T05:02:45.693Z,0.43
2023-04-04T05:03:51.980Z,0.46
2023-04-04T05:04:53.847Z,0.49
2023-04-04T05:05:57.968Z,0.52
2023-04-04T05:07:02.222Z,0.54
2023-04-04T05:08:06.349Z,0.57
2023-04-04T05:09:10.552Z,0.58
2023-04-04T05:10:14.748Z,0.59
2023-04-04T05:11:18.866Z,0.61
2023-04-04T05:12:23.042Z,0.63
2023-04-04T05:13:27.173Z,0.62
2023-04-04T05:14:31.430Z,0.62
2023-04-04T05:15:35.490Z,0.61
2023-04-04T05:16:39.565Z,0.61
2023-04-04T05:17:46.708Z,0.62
2023-04-04T05:18:49.899Z,0.63
2023-04-04T05:19:54.156Z,0.63
2023-04-04T05:20:58.227Z,0.62
2023-04-04T05:22:02.254Z,0.61
2023-04-04T05:23:06.426Z,0.60
2023-04-04T05:24:10.617Z,0.60
2023-04-04T05:25:14.664Z,0.61
2023-04-04T05:26:18.788Z,0.62
2023-04-04T05:27:23.132Z,0.63
2023-04-04T05:28:27.248Z,0.63
2023-04-04T05:29:31.411Z,0.62
2023-04-04T05:30:35.522Z,0.61
2023-04-04T05:31:39.705Z,0.61
2023-04-04T05:32:43.924Z,0.61
2023-04-04T05:33:47.923Z,0.60
2023-04-04T05:34:52.178Z,0.62
2023-04-04T05:35:56.362Z,0.63
2023-04-04T05:37:00.378Z,0.64
2023-04-04T05:38:04.497Z,0.67
2023-04-04T05:39:08.667Z,0.69
2023-04-04T05:40:12.817Z,0.71
2023-04-04T05:41:17.052Z,0.72
2023-04-04T05:42:21.114Z,0.73
2023-04-04T05:43:25.341Z,0.75
2023-04-04T05:44:29.466Z,0.75
2023-04-04T05:45:33.616Z,0.75
2023-04-04T05:46:37.733Z,0.75
2023-04-04T05:47:41.869Z,0.77
2023-04-04T05:48:45.965Z,0.78
2023-04-04T05:49:50.114Z,0.79
2023-04-04T05:50:54.356Z,0.81
2023-04-04T05:51:58.343Z,0.86
2023-04-04T05:53:02.463Z,0.90
2023-04-04T05:54:06.746Z,0.96
2023-04-04T05:55:10.840Z,1.02
2023-04-04T05:56:15.115Z,1.07
2023-04-04T05:57:19.211Z,1.11
2023-04-04T05:58:23.240Z,1.15
2023-04-04T05:59:27.548Z,1.20
2023-04-04T06:00:31.674Z,1.27
2023-04-04T06:01:35.714Z,1.33
2023-04-04T06:02:40.128Z,1.40
2023-04-04T06:03:47.247Z,1.47
2023-04-04T06:04:50.405Z,1.54
2023-04-04T06:05:54.563Z,1.59
2023-04-04T06:06:58.580Z,1.62
2023-04-04T06:08:02.748Z,1.67
2023-04-04T06:09:08.772Z,1.70
2023-04-04T06:10:11.108Z,1.74
2023-04-04T06:11:15.318Z,1.78
2023-04-04T06:12:19.557Z,1.82
2023-04-04T06:13:23.764Z,1.90
2023-04-04T06:14:27.963Z,1.98
2023-04-04T06:15:32.171Z,2.08
2023-04-04T06:16:36.271Z,2.16
2023-04-04T06:17:40.467Z,2.26
2023-04-04T06:18:44.484Z,2.38
2023-04-04T06:19:48.688Z,2.48
2023-04-04T06:20:52.865Z,2.57
2023-04-04T06:21:56.951Z,2.62
2023-04-04T06:23:01.206Z,2.66
2023-04-04T06:24:05.230Z,2.73
2023-04-04T06:25:09.459Z,2.77
2023-04-04T06:26:13.705Z,2.84
2023-04-04T06:27:17.918Z,2.90
2023-04-04T06:28:22.096Z,2.93
2023-04-04T06:29:26.246Z,2.96
2023-04-04T06:30:30.498Z,3.00
2023-04-04T06:31:34.671Z,3.05
2023-04-04T06:32:39.034Z,3.10
2023-04-04T06:33:42.975Z,3.12
2023-04-04T06:34:47.217Z,3.17
2023-04-04T06:35:51.484Z,3.21
2023-04-04T06:36:55.495Z,3.25
2023-04-04T06:37:59.827Z,3.29
2023-04-04T06:39:03.949Z,3.34
2023-04-04T06:40:08.100Z,3.39
2023-04-04T06:41:12.373Z,3.43
2023-04-04T06:42:16.617Z,3.48
2023-04-04T06:43:20.839Z,3.54
2023-04-04T06:44:25.018Z,3.59
2023-04-04T06:45:29.286Z,3.63
2023-04-04T06:46:33.486Z,3.67
2023-04-04T06:47:37.607Z,3.72
2023-04-04T06:48:41.834Z,3.79
2023-04-04T06:49:45.918Z,3.88
2023-04-04T06:50:50.176Z,4.01
2023-04-04T06:51:54.378Z,4.18
2023-04-04T06:52:58.561Z,4.37
2023-04-04T06:54:02.675Z,4.59
2023-04-04T06:55:06.953Z,4.77
2023-04-04T06:56:11.008Z,4.91
2023-04-04T06:57:15.292Z,4.96
2023-04-04T06:58:19.568Z,4.94
2023-04-04T06:59:23.748Z,4.84
2023-04-04T07:00:27.903Z,4.75
2023-04-04T07:01:32.155Z,4.65
2023-04-04T07:02:36.366Z,4.59
2023-04-04T07:03:40.448Z,4.52
2023-04-04T07:04:44.633Z,4.46
2023-04-04T07:05:48.860Z,4.40
2023-04-04T07:06:52.999Z,4.35
2023-04-04T07:07:57.272Z,4.32
2023-04-04T07:09:01.379Z,4.29
2023-04-04T07:10:05.600Z,4.26
2023-04-04T07:11:09.735Z,4.23
2023-04-04T07:12:13.896Z,4.21
2023-04-04T07:13:18.080Z,4.18
2023-04-04T07:14:22.221Z,4.16
2023-04-04T07:15:26.384Z,4.15
2023-04-04T07:16:30.552Z,4.15
2023-04-04T07:17:34.740Z,4.14
2023-04-04T07:18:38.935Z,4.14
2023-04-04T07:19:43.193Z,4.14
2023-04-04T07:20:47.294Z,4.13
2023-04-04T07:21:51.509Z,4.13
2023-04-04T07:22:55.673Z,4.15
2023-04-04T07:23:59.930Z,4.15
2023-04-04T07:25:04.013Z,4.14
2023-04-04T07:26:08.368Z,4.13
2023-04-04T07:27:12.527Z,4.13
2023-04-04T07:28:16.663Z,4.15
2023-04-04T07:29:20.740Z,4.16
2023-04-04T07:30:25.014Z,4.18
2023-04-04T07:31:29.242Z,4.19
2023-04-04T07:32:33.359Z,4.21
2023-04-04T07:33:37.503Z,4.23
2023-04-04T07:34:41.687Z,4.25
2023-04-04T07:35:46.000Z,4.27
2023-04-04T07:36:50.110Z,4.29
2023-04-04T07:37:54.320Z,4.31
2023-04-04T07:38:58.532Z,4.32
2023-04-04T07:40:02.773Z,4.34
2023-04-04T07:41:06.891Z,4.37
2023-04-04T07:42:11.120Z,4.39
2023-04-04T07:43:15.328Z,4.41
2023-04-04T07:44:19.443Z,4.43
2023-04-04T07:45:23.741Z,4.45
2023-04-04T07:46:28.015Z,4.48
2023-04-04T07:47:32.064Z,4.51
2023-04-04T07:48:36.313Z,4.54
2023-04-04T07:49:40.486Z,4.57
2023-04-04T07:50:44.615Z,4.60
2023-04-04T07:51:48.865Z,4.63
2023-04-04T07:52:52.942Z,4.66
2023-04-04T07:53:57.272Z,4.68
2023-04-04T07:55:01.398Z,4.70
2023-04-04T07:56:05.565Z,4.72
2023-04-04T07:57:10.128Z,4.75
2023-04-04T07:58:13.919Z,4.78
2023-04-04T07:59:18.191Z,4.80
2023-04-04T08:00:22.344Z,4.83
2023-04-04T08:01:26.500Z,4.87
2023-04-04T08:02:30.755Z,4.90
2023-04-04T08:03:35.137Z,4.93
2023-04-04T08:04:39.097Z,4.95
2023-04-04T08:05:43.296Z,4.98
2023-04-04T08:06:47.519Z,5.00
2023-04-04T08:07:51.735Z,4.99
2023-04-04T08:08:55.813Z,4.98
2023-04-04T08:10:00.164Z,4.98
2023-04-04T08:11:04.334Z,4.97
2023-04-04T08:12:08.367Z,4.96
2023-04-04T08:13:12.683Z,4.93
2023-04-04T08:14:16.870Z,4.93
2023-04-04T08:15:21.061Z,4.94
2023-04-04T08:16:25.442Z,4.94
2023-04-04T08:17:29.460Z,4.96
2023-04-04T08:18:33.630Z,4.98
2023-04-04T08:19:37.833Z,5.01
2023-04-04T08:20:43.206Z,5.05
2023-04-04T08:21:46.927Z,5.10
2023-04-04T08:22:51.099Z,5.14
2023-04-04T08:23:55.372Z,5.17
2023-04-04T08:24:59.450Z,5.21
2023-04-04T08:26:03.714Z,5.24
2023-04-04T08:27:07.953Z,5.28
2023-04-04T08:28:12.224Z,5.33
2023-04-04T08:29:16.376Z,5.38
2023-04-04T08:30:20.591Z,5.42
2023-04-04T08:31:24.949Z,5.47
2023-04-04T08:32:29.126Z,5.52
2023-04-04T08:33:44.612Z,5.58
2023-04-04T08:34:37.562Z,5.64
2023-04-04T08:35:41.739Z,5.70
2023-04-04T08:36:45.887Z,5.76
2023-04-04T08:37:50.174Z,5.83
2023-04-04T08:38:54.233Z,5.90
2023-04-04T08:39:58.539Z,5.97
2023-04-04T08:41:02.707Z,6.03
2023-04-04T08:42:06.945Z,6.07
2023-04-04T08:43:11.300Z,6.14
2023-04-04T08:44:15.315Z,6.19
2023-04-04T08:45:19.615Z,6.23
2023-04-04T08:46:23.811Z,6.27
2023-04-04T08:47:27.949Z,6.28
2023-04-04T08:48:32.245Z,6.27
2023-04-04T08:49:36.298Z,6.23
2023-04-04T08:50:40.926Z,6.19
2023-04-04T08:51:44.928Z,6.17
2023-04-04T08:52:49.116Z,6.17
2023-04-04T08:53:53.294Z,6.17
2023-04-04T08:54:57.481Z,6.17
2023-04-04T08:56:01.593Z,6.19
2023-04-04T08:57:05.787Z,6.21
2023-04-04T08:58:24.075Z,6.21
2023-04-04T08:59:27.103Z,6.21
2023-04-04T09:00:31.220Z,6.21
2023-04-04T09:01:35.457Z,6.24
2023-04-04T09:02:39.640Z,6.29
2023-04-04T09:03:43.776Z,6.33
2023-04-04T09:04:58.263Z,6.37
2023-04-04T09:05:52.248Z,6.38
2023-04-04T09:06:59.548Z,6.39
2023-04-04T09:08:02.778Z,6.44
2023-04-04T09:09:06.918Z,6.49
2023-04-04T09:10:11.143Z,6.55
2023-04-04T09:11:15.370Z,6.57
2023-04-04T09:12:19.669Z,6.60
2023-04-04T09:13:23.824Z,6.65
2023-04-04T09:14:28.083Z,6.70
2023-04-04T09:15:32.280Z,6.75
2023-04-04T09:16:36.545Z,6.77
2023-04-04T09:17:40.651Z,6.75
2023-04-04T09:18:44.953Z,6.72
2023-04-04T09:19:49.081Z,6.71
2023-04-04T09:20:53.504Z,6.74
2023-04-04T09:21:57.511Z,6.78
2023-04-04T09:23:01.747Z,6.83
2023-04-04T09:24:05.975Z,6.88
2023-04-04T09:25:10.204Z,6.93
2023-04-04T09:26:14.825Z,6.99
2023-04-04T09:27:18.695Z,7.05
2023-04-04T09:28:22.883Z,7.11
2023-04-04T09:29:27.217Z,7.15
2023-04-04T09:30:31.413Z,7.14
2023-04-04T09:31:35.666Z,7.09
2023-04-04T09:32:39.792Z,7.04
2023-04-04T09:33:44.009Z,7.01
2023-04-04T09:34:48.260Z,7.00
2023-04-04T09:35:52.591Z,6.96
2023-04-04T09:36:56.674Z,6.95
2023-04-04T09:38:00.982Z,6.97
2023-04-04T09:39:05.173Z,6.98
2023-04-04T09:40:09.418Z,7.00
2023-04-04T09:41:13.755Z,7.00
2023-04-04T09:42:17.865Z,7.01
2023-04-04T09:43:22.128Z,7.04
2023-04-04T09:44:26.325Z,7.05
2023-04-04T09:45:32.345Z,7.08
2023-04-04T09:46:34.888Z,7.07
2023-04-04T09:47:39.060Z,7.09
2023-04-04T09:48:43.201Z,7.10
2023-04-04T09:49:47.515Z,7.10
2023-04-04T09:50:54.772Z,7.08
2023-04-04T09:51:58.095Z,7.07
2023-04-04T09:53:02.237Z,7.05
2023-04-04T09:54:09.022Z,7.03
2023-04-04T09:55:16.844Z,7.01
2023-04-04T09:56:19.661Z,7.01
2023-04-04T09:57:23.853Z,7.03
2023-04-04T09:58:28.374Z,7.09
2023-04-04T09:59:32.334Z,7.15
2023-04-04T10:00:36.577Z,7.20
2023-04-04T10:01:40.773Z,7.26
2023-04-04T10:02:45.058Z,7.32
2023-04-04T10:03:49.272Z,7.38
2023-04-04T10:05:03.393Z,7.39
2023-04-04T10:05:57.637Z,7.43
2023-04-04T10:07:01.885Z,7.47
2023-04-04T10:08:06.200Z,7.49
2023-04-04T10:09:10.222Z,7.54
2023-04-04T10:10:20.498Z,7.55
2023-04-04T10:11:24.174Z,7.57
2023-04-04T10:12:27.496Z,7.57
2023-04-04T10:13:31.735Z,7.59
2023-04-04T10:14:35.949Z,7.60
2023-04-04T10:15:40.321Z,7.59
2023-04-04T10:16:44.513Z,7.54
2023-04-04T10:17:48.816Z,7.51
2023-04-04T10:18:53.057Z,7.52
2023-04-04T10:19:57.222Z,7.56
2023-04-04T10:21:14.492Z,7.59
2023-04-04T10:22:05.698Z,7.62
2023-04-04T10:23:09.999Z,7.65
2023-04-04T10:24:14.212Z,7.69
2023-04-04T10:25:18.554Z,7.76
2023-04-04T10:26:22.712Z,7.80
2023-04-04T10:27:26.897Z,7.84
2023-04-04T10:28:31.313Z,7.89
2023-04-04T10:29:35.523Z,7.96
2023-04-04T10:30:39.925Z,8.03
2023-04-04T10:31:43.954Z,8.08
2023-04-04T10:32:48.288Z,8.10
2023-04-04T10:33:52.462Z,8.15
2023-04-04T10:34:56.686Z,8.20
2023-04-04T10:36:00.939Z,8.24
2023-04-04T10:37:13.421Z,8.25
2023-04-04T10:38:15.378Z,8.26
2023-04-04T10:39:19.612Z,8.24
2023-04-04T10:40:23.866Z,8.24
2023-04-04T10:41:28.001Z,8.24
2023-04-04T10:42:32.215Z,8.24
2023-04-04T10:43:36.450Z,8.25
2023-04-04T10:44:40.690Z,8.26
2023-04-04T10:45:44.914Z,8.29
2023-04-04T10:46:49.204Z,8.31
2023-04-04T10:47:53.374Z,8.30
2023-04-04T10:48:57.620Z,8.30
2023-04-04T10:50:01.910Z,8.24
2023-04-04T10:51:06.081Z,8.20
2023-04-04T10:52:10.303Z,8.21
2023-04-04T10:53:14.641Z,8.24
2023-04-04T10:54:18.801Z,8.29
2023-04-04T10:55:23.062Z,8.30
2023-04-04T10:56:28.281Z,8.29
2023-04-04T10:57:31.969Z,8.29
2023-04-04T10:58:36.321Z,8.30
2023-04-04T10:59:40.416Z,8.29
2023-04-04T11:00:44.744Z,8.30
2023-04-04T11:01:49.004Z,8.32
2023-04-04T11:02:53.372Z,8.36
2023-04-04T11:03:57.499Z,8.37
2023-04-04T11:05:01.698Z,8.39
2023-04-04T11:06:05.907Z,8.42
2023-04-04T11:07:10.093Z,8.45
2023-04-04T11:08:14.534Z,8.47
2023-04-04T11:09:18.675Z,8.46
2023-04-04T11:10:22.832Z,8.43
2023-04-04T11:11:27.117Z,8.41
2023-04-04T11:12:31.358Z,8.42
2023-04-04T11:13:35.482Z,8.48
2023-04-04T11:14:39.768Z,8.54
2023-04-04T11:15:43.969Z,8.55
2023-04-04T11:16:48.232Z,8.51
2023-04-04T11:17:52.549Z,8.45
2023-04-04T11:18:56.801Z,8.42
2023-04-04T11:20:00.983Z,8.43
2023-04-04T11:21:05.364Z,8.45
2023-04-04T11:22:09.455Z,8.48
2023-04-04T11:23:13.778Z,8.53
2023-04-04T11:24:17.920Z,8.60
2023-04-04T11:25:22.147Z,8.69
2023-04-04T11:26:26.495Z,8.78
2023-04-04T11:27:30.728Z,8.84
2023-04-04T11:28:34.880Z,8.85
2023-04-04T11:29:39.137Z,8.88
2023-04-04T11:30:43.240Z,8.85
2023-04-04T11:31:47.546Z,8.80
2023-04-04T11:33:03.820Z,8.78
2023-04-04T11:33:56.050Z,8.77
2023-04-04T11:35:00.247Z,8.77
2023-04-04T11:36:06.249Z,8.75
2023-04-04T11:37:08.646Z,8.73
2023-04-04T11:38:12.957Z,8.67
2023-04-04T11:39:17.156Z,8.65
2023-04-04T11:40:21.486Z,8.67
2023-04-04T11:41:25.692Z,8.69
2023-04-04T11:42:29.960Z,8.71
2023-04-04T11:43:34.133Z,8.73
2023-04-04T11:44:38.362Z,8.68
2023-04-04T11:45:42.807Z,8.61
2023-04-04T11:46:48.097Z,8.52
2023-04-04T11:47:50.971Z,8.43
2023-04-04T11:48:55.301Z,8.36
2023-04-04T11:49:59.477Z,8.32
2023-04-04T11:51:03.695Z,8.32
2023-04-04T11:52:07.908Z,8.34
2023-04-04T11:53:12.052Z,8.36
2023-04-04T11:54:22.543Z,8.40
2023-04-04T11:55:25.426Z,8.44
2023-04-04T11:56:29.562Z,8.49
2023-04-04T11:57:33.732Z,8.57
2023-04-04T11:58:38.072Z,8.68
2023-04-04T11:59:42.356Z,8.74
2023-04-04T12:00:46.518Z,8.71
2023-04-04T12:01:50.708Z,8.63
2023-04-04T12:02:55.004Z,8.52
2023-04-04T12:04:05.221Z,8.41
2023-04-04T12:05:08.076Z,8.36
2023-04-04T12:06:12.269Z,8.37
2023-04-04T12:07:16.471Z,8.45
2023-04-04T12:08:20.748Z,8.55
2023-04-04T12:09:27.833Z,8.66
2023-04-04T12:10:31.158Z,8.71
2023-04-04T12:11:35.620Z,8.68
2023-04-04T12:12:39.742Z,8.61
2023-04-04T12:13:43.911Z,8.53
2023-04-04T12:14:48.092Z,8.47
2023-04-04T12:15:52.336Z,8.45
2023-04-04T12:16:56.572Z,8.48
2023-04-04T12:18:00.905Z,8.59
2023-04-04T12:19:05.131Z,8.72
2023-04-04T12:20:09.341Z,8.85
2023-04-04T12:21:13.547Z,8.93
2023-04-04T12:22:17.727Z,8.99
2023-04-04T12:23:21.989Z,9.10
2023-04-04T12:24:26.210Z,9.21
2023-04-04T12:25:30.471Z,9.33
2023-04-04T12:26:34.834Z,9.45
2023-04-04T12:27:39.083Z,9.58
2023-04-04T12:28:43.287Z,9.66
2023-04-04T12:29:47.534Z,9.77
2023-04-04T12:30:51.866Z,9.90
2023-04-04T12:31:56.191Z,10.02
2023-04-04T12:33:00.350Z,10.17
2023-04-04T12:34:04.638Z,10.26
2023-04-04T12:35:08.844Z,10.36
2023-04-04T12:36:13.103Z,10.44
2023-04-04T12:37:17.370Z,10.53
2023-04-04T12:38:21.633Z,10.58
2023-04-04T12:39:25.976Z,10.59
2023-04-04T12:40:30.269Z,10.65
2023-04-04T12:41:34.564Z,10.67
2023-04-04T12:42:44.815Z,10.67
2023-04-04T12:43:47.662Z,10.54
2023-04-04T12:44:51.842Z,10.42
2023-04-04T12:45:56.028Z,10.31
2023-04-04T12:47:00.585Z,10.27
2023-04-04T12:48:04.469Z,10.30
2023-04-04T12:49:08.700Z,10.35
2023-04-04T12:50:12.963Z,10.43
2023-04-04T12:51:17.173Z,10.60
2023-04-04T12:52:21.427Z,10.78
2023-04-04T12:53:29.009Z,10.95
2023-04-04T12:54:33.060Z,10.93
2023-04-04T12:55:36.393Z,10.93
2023-04-04T12:56:40.661Z,10.86
2023-04-04T12:57:44.926Z,10.80
2023-04-04T12:58:49.252Z,10.71
2023-04-04T12:59:53.380Z,10.60
2023-04-04T13:00:57.618Z,10.36
2023-04-04T13:02:01.870Z,10.13
2023-04-04T13:03:06.136Z,9.94
2023-04-04T13:04:10.394Z,9.76
2023-04-04T13:05:14.451Z,9.59
2023-04-04T13:06:18.786Z,9.46
2023-04-04T13:07:23.006Z,9.37
2023-04-04T13:08:27.418Z,9.27
2023-04-04T13:09:31.597Z,9.24
2023-04-04T13:10:35.845Z,9.31
2023-04-04T13:11:40.035Z,9.45
2023-04-04T13:12:44.238Z,9.64
2023-04-04T13:13:48.585Z,9.83
2023-04-04T13:14:52.749Z,9.87
2023-04-04T13:15:57.061Z,9.81
2023-04-04T13:17:01.405Z,9.74
2023-04-04T13:18:05.546Z,9.75
2023-04-04T13:19:09.767Z,9.81
2023-04-04T13:20:14.024Z,9.86
2023-04-04T13:21:18.249Z,9.96
2023-04-04T13:22:22.589Z,10.03
2023-04-04T13:23:26.768Z,10.05
2023-04-04T13:24:31.040Z,10.04
2023-04-04T13:25:35.203Z,9.95
2023-04-04T13:26:39.379Z,9.82
2023-04-04T13:27:43.674Z,9.76
2023-04-04T13:28:47.923Z,9.74
2023-04-04T13:29:52.133Z,9.66
2023-04-04T13:30:56.428Z,9.62
2023-04-04T13:32:06.632Z,9.64
2023-04-04T13:33:09.462Z,9.72
2023-04-04T13:34:13.701Z,9.79
2023-04-04T13:35:17.865Z,9.77
2023-04-04T13:36:22.149Z,9.70
2023-04-04T13:37:26.437Z,9.64
2023-04-04T13:38:30.772Z,9.59
2023-04-04T13:39:34.958Z,9.59
2023-04-04T13:40:42.271Z,9.53
2023-04-04T13:41:45.414Z,9.45
2023-04-04T13:42:49.693Z,9.44
2023-04-04T13:43:53.925Z,9.40
2023-04-04T13:44:58.149Z,9.42
2023-04-04T13:46:02.528Z,9.49
2023-04-04T13:47:06.727Z,9.56
2023-04-04T13:48:10.963Z,9.61
2023-04-04T13:49:15.155Z,9.65
2023-04-04T13:50:19.414Z,9.61
2023-04-04T13:51:23.669Z,9.52
2023-04-04T13:52:27.755Z,9.40
2023-04-04T13:53:32.044Z,9.28
2023-04-04T13:54:36.268Z,9.16
2023-04-04T13:55:44.161Z,9.13
2023-04-04T13:56:44.870Z,9.13
2023-04-04T13:57:49.044Z,9.15
2023-04-04T13:58:53.405Z,9.20
2023-04-04T13:59:57.585Z,9.24
2023-04-04T14:01:01.772Z,9.22
2023-04-04T14:02:06.009Z,9.25
2023-04-04T14:03:10.435Z,9.26
2023-04-04T14:04:23.401Z,9.22
2023-04-04T14:05:18.752Z,9.18
2023-04-04T14:06:23.056Z,9.13
2023-04-04T14:07:27.265Z,9.10
2023-04-04T14:08:32.129Z,9.11
2023-04-04T14:09:35.630Z,9.15
2023-04-04T14:10:39.868Z,9.13
2023-04-04T14:11:44.209Z,9.11
2023-04-04T14:12:48.457Z,9.12